MMNL/NLD METAR and TAF weather

Enter ICAO airport designator
Station Type Date Time Source
MMNL METAR 2019/04/25 00:41 UTC NOAA

MMNL 250041Z 01007KT 8SM SKC 21/17 A2980 RMK ISOL SC


Station Type Date Time Source
MMNL Decoded METAR 2019/04/25 00:41 UTC NOAA

Nuevo Laredo International , Mexico (MMNL) 27-26N 099-34W
Apr 24, 2019 - 08:41 PM EDT / 2019.04.25 0041 UTC
Wind: from the N (010 degrees) at 8 MPH (7 KT):0
Visibility: 8 mile(s):0
Sky conditions: clear
Temperature: 69 F (21 C)
Dew Point: 62 F (17 C)
Relative Humidity: 77%
Pressure (altimeter): 29.8 in. Hg (1009 hPa)
ob: MMNL 250041Z 01007KT 8SM SKC 21/17 A2980 RMK ISOL SC
cycle: 0

Station Type Date Time Source
MMNL TAF 2019/04/25 06:41 UTC NOAA

TAF MMNL 250535Z 2506/2606 02010KT P6SM SCT250
FM251500 36010KT P6SM SCT250
FM260200 06005KT P6SM SCT250

Example: see airport list